Terminal Aerodrome Forecast
Issued by NWS Pocatello, ID

Home | Current Version | Previous Version | Text Only | Print | Product List | Glossary On
Versions: 1 2 3 4 5 6 7 8 9 10 11 12 13 14 15 16 17 18 19 20 21 22 23 24 25 26 27 28
000
FTUS45 KPIH 180600 AAA
TAFPIH
TAF AMD
KPIH 180603Z 1806/1906 VRB03KT 4SM BR FEW003 SCT025 BKN060
      TEMPO 1806/1810 1/2SM FZFG VV002
     FM181000 VRB03KT 2SM BR OVC003
     FM181300 VRB03KT 4SM BR SCT003 BKN025 OVC050
     FM181800 21008KT P6SM BKN040 BKN070=

USA.gov is the U.S. government's official web portal to all federal, state and local government web resources and services.